East Cabot, Vermont
Current Conditions -  °F | °C
As of 4:55 PM on Saturday 25 Oct 2014 (Local Time) from KCDA Reporting Station
Overcast Overcast  
Wind Chill: 55°   Ceiling: 4600
Heat Index: 55°   Visibility: 10mi
Dew Point: 38°   Wind: 0mph
Humidity: 54%   Direction: NA
Pressure: 29.57"   Gusts: NA
Location:  44.4018°N, 72.2973°W
Report Text: KCDA 252055Z AUTO 00000KT 10SM OVC046 13/04 A2957 RMK AO2 T01250035
Loading
Personal Weather Stations






























Interactive Weather Map
Tropical Storm Tracking
New forecast layout! Learn more

10-Day Weather Forecast

Advertisements
Track Severe Weather on mobile